JAL134 RJOO-RJTT
Flight info
| Callsign | JAL134 |
|---|---|
| Flight time | N/A |
| Altitude | 27000 |
| Route | ASUKA SHTLE Y71 XAC |
| Aircraft | A359/H-SDE2E3GHIJ3J4J5LM1ORWXY/LB1D1 |
Departure
| Time | 2026-05-06 09:34 |
|---|---|
| Airport | Osaka Itami International Airport (RJOO) |
Arrival
| Time | N/A |
|---|---|
| Airport | Tokyo Haneda International Airport (RJTT) |
| Time | Latitude | Longitude | Altitude | Speed | Heading |
|---|---|---|---|---|---|
| 2026-05-06 09:20 | 34.79126 | 135.43916 | 55 ft | 0 kts | 67° |
| 2026-05-06 09:27 | 34.79125 | 135.43914 | 55 ft | 2 kts | 67° |
| 2026-05-06 09:27 | 34.79119 | 135.43895 | 47 ft | 2 kts | 66° |
| 2026-05-06 09:27 | 34.79112 | 135.43876 | 47 ft | 2 kts | 66° |
| 2026-05-06 09:27 | 34.79105 | 135.43857 | 47 ft | 2 kts | 65° |
| 2026-05-06 09:28 | 34.79097 | 135.43838 | 49 ft | 2 kts | 65° |
| 2026-05-06 09:28 | 34.79093 | 135.43825 | 48 ft | 2 kts | 69° |
| 2026-05-06 09:28 | 34.79087 | 135.43806 | 47 ft | 2 kts | 69° |
| 2026-05-06 09:28 | 34.79080 | 135.43787 | 47 ft | 2 kts | 59° |
| 2026-05-06 09:29 | 34.79071 | 135.43770 | 47 ft | 2 kts | 69° |
| 2026-05-06 09:29 | 34.79068 | 135.43750 | 47 ft | 2 kts | 98° |
| 2026-05-06 09:29 | 34.79073 | 135.43730 | 47 ft | 2 kts | 117° |
| 2026-05-06 09:29 | 34.79078 | 135.43720 | 47 ft | 1 kts | 128° |
| 2026-05-06 09:30 | 34.79079 | 135.43720 | 47 ft | 0 kts | 129° |
| 2026-05-06 09:30 | 34.79078 | 135.43721 | 47 ft | 1 kts | 128° |
| 2026-05-06 09:30 | 34.79040 | 135.43769 | 51 ft | 13 kts | 134° |
| 2026-05-06 09:31 | 34.78963 | 135.43861 | 51 ft | 18 kts | 136° |
| 2026-05-06 09:31 | 34.78862 | 135.43982 | 51 ft | 22 kts | 135° |
| 2026-05-06 09:31 | 34.78746 | 135.44121 | 49 ft | 25 kts | 135° |
| 2026-05-06 09:31 | 34.78609 | 135.44286 | 51 ft | 29 kts | 135° |
| 2026-05-06 09:32 | 34.78416 | 135.44335 | 51 ft | 30 kts | 180° |
| 2026-05-06 09:32 | 34.78267 | 135.44335 | 52 ft | 33 kts | 180° |
| 2026-05-06 09:32 | 34.78079 | 135.44459 | 50 ft | 32 kts | 137° |
| 2026-05-06 09:32 | 34.77913 | 135.44654 | 48 ft | 35 kts | 135° |
| 2026-05-06 09:33 | 34.77717 | 135.44888 | 50 ft | 37 kts | 143° |
| 2026-05-06 09:33 | 34.77496 | 135.45013 | 52 ft | 28 kts | 174° |
| 2026-05-06 09:33 | 34.77435 | 135.44907 | 49 ft | 8 kts | 297° |
| 2026-05-06 09:33 | 34.77501 | 135.44832 | 48 ft | 29 kts | 317° |
| 2026-05-06 09:34 | 34.77899 | 135.44359 | 48 ft | 130 kts | 316° |
| 2026-05-06 09:34 | 34.78753 | 135.43320 | 318 ft | 193 kts | 319° |
| 2026-05-06 09:34 | 34.79719 | 135.42066 | 1177 ft | 216 kts | 309° |
| 2026-05-06 09:34 | 34.80206 | 135.40188 | 1975 ft | 250 kts | 272° |
| 2026-05-06 09:35 | 34.79694 | 135.38067 | 2979 ft | 278 kts | 236° |
| 2026-05-06 09:35 | 34.78018 | 135.36745 | 3769 ft | 309 kts | 188° |
| 2026-05-06 09:35 | 34.75956 | 135.37724 | 4502 ft | 344 kts | 142° |
| 2026-05-06 09:35 | 34.74311 | 135.40057 | 5595 ft | 360 kts | 129° |
| 2026-05-06 09:36 | 34.72937 | 135.42643 | 7316 ft | 359 kts | 118° |
| 2026-05-06 09:36 | 34.72347 | 135.44504 | 8657 ft | 357 kts | 107° |
| 2026-05-06 09:36 | 34.72075 | 135.47577 | 10536 ft | 356 kts | 90° |
| 2026-05-06 09:36 | 34.72231 | 135.50661 | 11843 ft | 368 kts | 87° |
| 2026-05-06 09:37 | 34.72483 | 135.53989 | 12617 ft | 394 kts | 86° |
| 2026-05-06 09:37 | 34.72775 | 135.57426 | 13229 ft | 418 kts | 85° |
| 2026-05-06 09:37 | 34.73089 | 135.60913 | 14466 ft | 419 kts | 85° |
| 2026-05-06 09:37 | 34.73404 | 135.64558 | 16063 ft | 414 kts | 86° |
| 2026-05-06 09:38 | 34.73687 | 135.68045 | 17483 ft | 415 kts | 86° |
| 2026-05-06 09:38 | 34.73974 | 135.71678 | 18658 ft | 422 kts | 86° |
| 2026-05-06 09:38 | 34.74256 | 135.75214 | 19519 ft | 430 kts | 87° |
| 2026-05-06 09:38 | 34.74555 | 135.78918 | 20384 ft | 438 kts | 87° |
| 2026-05-06 09:39 | 34.74859 | 135.82686 | 21202 ft | 447 kts | 88° |
| 2026-05-06 09:39 | 34.75175 | 135.86597 | 22032 ft | 456 kts | 88° |
| 2026-05-06 09:39 | 34.75497 | 135.90585 | 22824 ft | 464 kts | 88° |
| 2026-05-06 09:39 | 34.75827 | 135.94687 | 23526 ft | 474 kts | 89° |
| 2026-05-06 09:40 | 34.76152 | 135.98712 | 24150 ft | 481 kts | 89° |
| 2026-05-06 09:40 | 34.76486 | 136.02860 | 24701 ft | 490 kts | 89° |
| 2026-05-06 09:40 | 34.76989 | 136.09928 | 25635 ft | 503 kts | 91° |
| 2026-05-06 09:41 | 34.77248 | 136.14265 | 26186 ft | 510 kts | 92° |
| 2026-05-06 09:41 | 34.77508 | 136.18589 | 26714 ft | 518 kts | 92° |
| 2026-05-06 09:41 | 34.77781 | 136.22992 | 26977 ft | 532 kts | 91° |
| 2026-05-06 09:41 | 34.77949 | 136.25602 | 27026 ft | 543 kts | 91° |
| 2026-05-06 09:42 | 34.78050 | 136.27119 | 27022 ft | 550 kts | 91° |
| 2026-05-06 09:42 | 34.78374 | 136.31850 | 27025 ft | 568 kts | 90° |
| 2026-05-06 09:42 | 34.78729 | 136.36727 | 27020 ft | 573 kts | 90° |
| 2026-05-06 09:42 | 34.79095 | 136.41569 | 27014 ft | 573 kts | 90° |
| 2026-05-06 09:43 | 34.79458 | 136.46381 | 27018 ft | 572 kts | 90° |
| 2026-05-06 09:43 | 34.79811 | 136.51213 | 27018 ft | 572 kts | 90° |
| 2026-05-06 09:43 | 34.80157 | 136.56096 | 27019 ft | 572 kts | 90° |
| 2026-05-06 09:43 | 34.80490 | 136.60925 | 27022 ft | 572 kts | 90° |
| 2026-05-06 09:44 | 34.80817 | 136.65756 | 27024 ft | 572 kts | 90° |
| 2026-05-06 09:44 | 34.81145 | 136.70644 | 27027 ft | 573 kts | 90° |
| 2026-05-06 09:44 | 34.81463 | 136.75409 | 27023 ft | 573 kts | 90° |
| 2026-05-06 09:44 | 34.81790 | 136.80330 | 27018 ft | 573 kts | 90° |
| 2026-05-06 09:45 | 34.82111 | 136.85173 | 27020 ft | 574 kts | 90° |
| 2026-05-06 09:45 | 34.82430 | 136.90018 | 27019 ft | 574 kts | 90° |
| 2026-05-06 09:45 | 34.82562 | 136.94791 | 27023 ft | 567 kts | 99° |
| 2026-05-06 09:45 | 34.82233 | 136.99622 | 27017 ft | 565 kts | 103° |
| 2026-05-06 09:46 | 34.81779 | 137.04371 | 27016 ft | 564 kts | 104° |
| 2026-05-06 09:46 | 34.81258 | 137.09094 | 27020 ft | 564 kts | 105° |
| 2026-05-06 09:46 | 34.80705 | 137.13828 | 27021 ft | 564 kts | 105° |
| 2026-05-06 09:46 | 34.80145 | 137.18559 | 27023 ft | 564 kts | 105° |
| 2026-05-06 09:47 | 34.79596 | 137.23227 | 27024 ft | 564 kts | 105° |
| 2026-05-06 09:47 | 34.79048 | 137.27956 | 27027 ft | 564 kts | 105° |
| 2026-05-06 09:47 | 34.78507 | 137.32680 | 27029 ft | 564 kts | 104° |
| 2026-05-06 09:47 | 34.77969 | 137.37416 | 27028 ft | 563 kts | 104° |
| 2026-05-06 09:48 | 34.77432 | 137.42142 | 27031 ft | 563 kts | 104° |
| 2026-05-06 09:48 | 34.76896 | 137.46849 | 27035 ft | 562 kts | 104° |
| 2026-05-06 09:48 | 34.76349 | 137.51631 | 27031 ft | 562 kts | 104° |
| 2026-05-06 09:48 | 34.75807 | 137.56343 | 27034 ft | 562 kts | 104° |
| 2026-05-06 09:49 | 34.75256 | 137.61112 | 27035 ft | 561 kts | 104° |
| 2026-05-06 09:49 | 34.74712 | 137.65808 | 27036 ft | 561 kts | 104° |
| 2026-05-06 09:49 | 34.74163 | 137.70569 | 27033 ft | 561 kts | 104° |
| 2026-05-06 09:49 | 34.73676 | 137.75283 | 27037 ft | 562 kts | 103° |
| 2026-05-06 09:50 | 34.73235 | 137.80018 | 27043 ft | 562 kts | 103° |
| 2026-05-06 09:50 | 34.72809 | 137.84751 | 27048 ft | 562 kts | 103° |
| 2026-05-06 09:50 | 34.72377 | 137.89530 | 27044 ft | 562 kts | 103° |
| 2026-05-06 09:50 | 34.71946 | 137.94198 | 27045 ft | 562 kts | 103° |
| 2026-05-06 09:51 | 34.71495 | 137.98985 | 27050 ft | 561 kts | 103° |
| 2026-05-06 09:51 | 34.71193 | 138.03730 | 27055 ft | 569 kts | 97° |
| 2026-05-06 09:51 | 34.71111 | 138.08610 | 27053 ft | 584 kts | 96° |
| 2026-05-06 09:51 | 34.71097 | 138.13531 | 27050 ft | 580 kts | 95° |
| 2026-05-06 09:52 | 34.71126 | 138.18404 | 27046 ft | 575 kts | 95° |
| 2026-05-06 09:52 | 34.71165 | 138.23265 | 27042 ft | 574 kts | 95° |
| 2026-05-06 09:52 | 34.71199 | 138.28122 | 27048 ft | 573 kts | 95° |
| 2026-05-06 09:52 | 34.71224 | 138.33029 | 27048 ft | 573 kts | 95° |
| 2026-05-06 09:53 | 34.71239 | 138.37863 | 27051 ft | 572 kts | 95° |
| 2026-05-06 09:53 | 34.71248 | 138.42713 | 27053 ft | 572 kts | 95° |
| 2026-05-06 09:53 | 34.71252 | 138.47610 | 27052 ft | 572 kts | 96° |
| 2026-05-06 09:53 | 34.71254 | 138.52442 | 27057 ft | 572 kts | 96° |
| 2026-05-06 09:54 | 34.71255 | 138.55711 | 27057 ft | 573 kts | 96° |
| 2026-05-06 09:54 | 34.71254 | 138.60633 | 27059 ft | 573 kts | 96° |
| 2026-05-06 09:54 | 34.71252 | 138.65485 | 27065 ft | 573 kts | 96° |
| 2026-05-06 09:54 | 34.71249 | 138.70331 | 27062 ft | 573 kts | 96° |
| 2026-05-06 09:55 | 34.71342 | 138.75184 | 27061 ft | 577 kts | 90° |
| 2026-05-06 09:55 | 34.71840 | 138.80042 | 27053 ft | 579 kts | 85° |
| 2026-05-06 09:55 | 34.72523 | 138.84874 | 27063 ft | 579 kts | 83° |
| 2026-05-06 09:55 | 34.73257 | 138.89718 | 27065 ft | 580 kts | 83° |
| 2026-05-06 09:56 | 34.74005 | 138.94524 | 27065 ft | 579 kts | 83° |
| 2026-05-06 09:56 | 34.74759 | 138.99338 | 27066 ft | 579 kts | 83° |
| 2026-05-06 09:56 | 34.75511 | 139.04134 | 26965 ft | 576 kts | 83° |
| 2026-05-06 09:56 | 34.76264 | 139.08951 | 26255 ft | 569 kts | 83° |
| 2026-05-06 09:57 | 34.77005 | 139.13661 | 25343 ft | 565 kts | 83° |
| 2026-05-06 09:57 | 34.77743 | 139.18341 | 24586 ft | 558 kts | 84° |
| 2026-05-06 09:57 | 34.78475 | 139.23001 | 23844 ft | 550 kts | 84° |
| 2026-05-06 09:57 | 34.79181 | 139.27530 | 22961 ft | 543 kts | 84° |
| 2026-05-06 09:58 | 34.79879 | 139.32041 | 22067 ft | 536 kts | 84° |
| 2026-05-06 09:58 | 34.80563 | 139.36461 | 21201 ft | 529 kts | 83° |
| 2026-05-06 09:58 | 34.81241 | 139.40848 | 20402 ft | 521 kts | 83° |
| 2026-05-06 09:58 | 34.81911 | 139.45201 | 19642 ft | 513 kts | 83° |
| 2026-05-06 09:59 | 34.82559 | 139.49430 | 18884 ft | 506 kts | 83° |
| 2026-05-06 09:59 | 34.83200 | 139.53628 | 18069 ft | 499 kts | 82° |
| 2026-05-06 09:59 | 34.83830 | 139.57752 | 17294 ft | 490 kts | 82° |
| 2026-05-06 09:59 | 34.84448 | 139.61809 | 16555 ft | 480 kts | 82° |
| 2026-05-06 10:00 | 34.85055 | 139.65813 | 15792 ft | 471 kts | 81° |
| 2026-05-06 10:00 | 34.85681 | 139.69697 | 15093 ft | 462 kts | 77° |
| 2026-05-06 10:00 | 34.86720 | 139.73343 | 14941 ft | 451 kts | 64° |
| 2026-05-06 10:00 | 34.88404 | 139.76568 | 14932 ft | 453 kts | 49° |
| 2026-05-06 10:01 | 34.90676 | 139.79192 | 14934 ft | 449 kts | 36° |
| 2026-05-06 10:01 | 34.93167 | 139.81488 | 14907 ft | 448 kts | 34° |
| 2026-05-06 10:01 | 34.95678 | 139.83728 | 14841 ft | 446 kts | 32° |
| 2026-05-06 10:01 | 34.98234 | 139.85959 | 14618 ft | 443 kts | 32° |
| 2026-05-06 10:02 | 35.00715 | 139.88154 | 14402 ft | 441 kts | 33° |
| 2026-05-06 10:02 | 35.03175 | 139.90366 | 14223 ft | 438 kts | 33° |
| 2026-05-06 10:02 | 35.05608 | 139.92577 | 14020 ft | 434 kts | 34° |
| 2026-05-06 10:02 | 35.08028 | 139.94791 | 13805 ft | 435 kts | 34° |
| 2026-05-06 10:03 | 35.10429 | 139.97002 | 13367 ft | 426 kts | 34° |
| 2026-05-06 10:03 | 35.12797 | 139.99185 | 12338 ft | 425 kts | 34° |
| 2026-05-06 10:03 | 35.15147 | 140.01355 | 11401 ft | 423 kts | 34° |
| 2026-05-06 10:03 | 35.17471 | 140.03500 | 10768 ft | 403 kts | 36° |
| 2026-05-06 10:04 | 35.19650 | 140.05518 | 10647 ft | 384 kts | 34° |
| 2026-05-06 10:04 | 35.21720 | 140.07452 | 10530 ft | 369 kts | 34° |
| 2026-05-06 10:04 | 35.23916 | 140.09485 | 10495 ft | 403 kts | 34° |
| 2026-05-06 10:04 | 35.26160 | 140.11559 | 10457 ft | 402 kts | 34° |
| 2026-05-06 10:05 | 35.28381 | 140.13617 | 10412 ft | 398 kts | 34° |
| 2026-05-06 10:05 | 35.30558 | 140.15634 | 10393 ft | 397 kts | 34° |
| 2026-05-06 10:05 | 35.32771 | 140.17647 | 10367 ft | 395 kts | 31° |
| 2026-05-06 10:05 | 35.35227 | 140.19230 | 10340 ft | 390 kts | 17° |
| 2026-05-06 10:06 | 35.37811 | 140.20001 | 10182 ft | 375 kts | 3° |
| 2026-05-06 10:06 | 35.39961 | 140.20169 | 9527 ft | 368 kts | 359° |
| 2026-05-06 10:06 | 35.42548 | 140.20217 | 8403 ft | 373 kts | 357° |
| 2026-05-06 10:06 | 35.45140 | 140.20242 | 7613 ft | 370 kts | 358° |
| 2026-05-06 10:07 | 35.47704 | 140.20286 | 7156 ft | 366 kts | 358° |
| 2026-05-06 10:07 | 35.50209 | 140.20341 | 7011 ft | 367 kts | 359° |
| 2026-05-06 10:07 | 35.52732 | 140.20375 | 6987 ft | 365 kts | 355° |
| 2026-05-06 10:07 | 35.55199 | 140.19852 | 6746 ft | 354 kts | 343° |